Weather observations for the past three days for
East Troy Municipal Airport
Imperial (Metric)
Date Time (cdt) Wind (mph) Vis. (mi.) Weather Sky Cond. Temperature (ºF) Relative Humidity Wind Chill (°F) Heat Index (°F) Pressure Precipitation (in)
Air Dwpt 6 hour altimeter (in) sea level (mb) 1 hr 3 hr 6 hr
Max. Min.
09 11:35 W 10 G 18 10.00 Overcast OVC100 62.1 36.3 38% 29.63 0.0
09 11:15 W 10 G 20 10.00 Mostly Cloudy BKN100 60.6 34.9 38% 29.63 0.0
09 10:55 W 9 G 17 10.00 Mostly Cloudy BKN100 60.8 37 41% 29.64 0.0
09 10:35 W 10 G 18 10.00 Mostly Cloudy BKN110 61 37.6 42% 29.64 0.0
09 10:15 W 14 10.00 Partly Cloudy SCT120 60.8 37.9 43% 29.64 0.0
09 09:55 W 6 10.00 Partly Cloudy SCT120 59.9 39 46% 29.62 0.0
09 09:35 SW 6 10.00 Fair CLR 59.4 40.5 50% 29.61 0.0
09 09:15 W 9 10.00 Fair CLR 58.8 41.5 53% 29.62 0.0
09 08:55 W 7 10.00 Fair CLR 58.5 40.6 52% 29.61 0.0
09 08:35 W 8 10.00 Fair CLR 58.3 41.7 54% 29.61 0.0
09 08:15 W 9 G 16 10.00 Fair CLR 56.8 43.5 61% 29.61 0.0
09 07:55 W 8 10.00 Fair CLR 56.1 46 69% 29.6 0.0
09 07:35 W 6 10.00 Fair CLR 54.5 46.9 76% 29.6 0.0
09 07:15 W 8 10.00 Fair CLR 53.6 46.9 78% 29.61 0.0
09 06:55 W 9 10.00 Fair CLR 52.7 46.8 56.3 51.4 80% 29.6 0.0
09 06:35 W 10 10.00 Fair CLR 52 46.8 82% 29.59 0.0
09 06:15 W 9 10.00 Fair CLR 51.4 46.6 84% 29.59 0.0
09 05:55 W 9 G 16 10.00 Fair CLR 51.8 46.6 82% 29.59 0.0
09 05:35 W 10 G 16 10.00 Fair CLR 52.5 46.6 80% 29.58 0.0
09 05:15 W 9 10.00 Fair CLR 52.7 46.6 80% 29.57 0.0
09 04:55 W 9 10.00 Partly Cloudy SCT120 52.9 46.4 79% 29.58 0.0
09 04:35 W 8 G 17 10.00 Mostly Cloudy BKN120 53.6 46.4 77% 29.58 0.0
09 04:15 W 8 10.00 Partly Cloudy SCT120 53.2 46 77% 29.59 0.0
09 03:55 SW 10 G 16 10.00 Partly Cloudy SCT120 53.2 46 77% 29.58 0.0
09 03:35 SW 9 G 17 10.00 Partly Cloudy SCT110 53.2 46 77% 29.58 0.0
09 03:15 SW 9 10.00 Fair CLR 52.9 46 78% 29.58 0.0
09 02:55 SW 7 10.00 Fair CLR 53.1 46 77% 29.59 0.0
09 02:35 SW 7 10.00 Fair CLR 53.6 45.9 75% 29.59 0.0
09 02:15 SW 8 10.00 Fair CLR 54 45.5 73% 29.59 0.0
09 01:55 SW 7 10.00 Fair CLR 54.3 45 71% 29.6 0.0
09 01:35 SW 7 10.00 Fair CLR 55 44.2 67% 29.61 0.0
09 01:15 SW 9 G 17 10.00 Partly Cloudy SCT120 55.8 43.7 64% 29.62 0.0
09 00:55 SW 10 G 17 10.00 Partly Cloudy SCT110 56.3 42.4 65.3 51.4 60% 29.63 0.0
09 00:35 SW 10 G 17 10.00 Partly Cloudy SCT120 55.8 41 58% 29.63 0.0
09 00:15 SW 7 10.00 Mostly Cloudy BKN110 55.8 39.7 55% 29.64 0.0
08 23:55 SW 6 10.00 Mostly Cloudy BKN110 54.7 39.9 58% 29.64 0.0
08 23:35 SW 3 10.00 Partly Cloudy SCT120 52.3 41 65% 29.64 0.0
08 23:15 Calm 10.00 Partly Cloudy SCT110 52.2 41.5 67% 29.64 0.0
08 22:55 SE 5 10.00 Fair CLR 51.6 41.9 70% 29.64 0.0
08 22:35 SE 6 10.00 Fair CLR 51.8 41.9 69% 29.64 0.0
08 22:15 SE 6 10.00 Fair CLR 52 41.4 67% 29.64 0.0
08 21:55 SE 6 10.00 Fair CLR 52.5 40.5 64% 29.65 0.0
08 21:35 SE 6 10.00 Partly Cloudy SCT120 53.2 39.9 61% 29.66 0.0
08 21:15 S 5 10.00 Partly Cloudy SCT085 SCT120 54 39.4 58% 29.66 0.0
08 20:55 S 6 10.00 Fair CLR 54.3 39 56% 29.66 0.0
08 20:35 SE 6 10.00 Fair CLR 55 38.5 54% 29.66 0.0
08 19:55 SE 7 10.00 Fair CLR 57.9 37.2 46% 29.66 0.0
08 19:35 Calm 10.00 Fair CLR 63.5 29.7 28% 29.66 0.0
08 19:15 SW 5 10.00 Fair CLR 64.8 29.5 27% 29.66 0.0
08 18:55 Calm 10.00 Fair CLR 65.3 30 66.9 61.5 27% 29.66 0.0
08 18:35 SW 6 10.00 Partly Cloudy SCT100 65.8 29.3 25% 29.67 0.0
08 18:15 SW 5 10.00 Partly Cloudy SCT100 66.2 30 26% 29.68 0.0
08 17:55 W 8 10.00 Partly Cloudy SCT095 66.2 28.4 24% 29.68 0.0
08 17:35 SW 6 10.00 Mostly Cloudy BKN095 66.6 28 24% 29.68 0.0
08 17:15 W 9 10.00 Mostly Cloudy BKN095 66.6 28.6 24% 29.69 0.0
08 16:55 W 5 10.00 Mostly Cloudy BKN095 66.4 28.8 24% 29.69 0.0
08 16:35 W 8 10.00 Fair CLR 65.3 27.7 24% 29.7 0.0
08 16:15 W 5 10.00 Fair CLR 66.4 25.9 22% 29.7 0.0
08 15:35 SW 9 10.00 Partly Cloudy SCT100 65.7 26.6 23% 29.72 0.0
08 14:55 SW 7 10.00 Fair CLR 65.8 28.2 24% 29.74 0.0
08 14:35 W 3 G 20 10.00 Fair CLR 64.8 24.3 21% 29.75 0.0
08 14:15 S 5 G 18 10.00 Fair CLR 63.9 24.6 22% 29.75 0.0
08 13:55 S 7 10.00 Fair CLR 62.8 24.4 23% 29.76 0.0
08 13:35 W 8 10.00 Fair CLR 63.7 27.1 25% 29.77 0.0
08 13:15 SW 9 10.00 Fair CLR 62.6 24.6 23% 29.77 0.0
08 12:55 W 6 10.00 Fair CLR 62.2 23.2 62.6 33.6 22% 29.78 0.0
08 12:35 S 6 10.00 Fair CLR 61.2 24.1 24% 29.79 0.0
08 12:15 W 7 10.00 Fair CLR 61.2 24.6 25% 29.8 0.0
08 11:55 W 6 10.00 Fair CLR 60.6 23.9 24% 29.81 0.0
08 11:35 W 3 10.00 Fair CLR 59.9 26.8 28% 29.82 0.0
08 11:15 W 3 10.00 Fair CLR 59.7 23.4 25% 29.82 0.0
08 10:55 W 3 10.00 Fair CLR 59.5 23.2 25% 29.83 0.0
08 10:15 SE 5 10.00 Fair CLR 58.3 24.6 27% 29.83 0.0
08 09:55 SE 5 10.00 Fair CLR 57.7 26.4 30% 29.84 0.0
08 09:35 S 6 10.00 Fair CLR 56.3 28 34% 29.84 0.0
08 09:15 S 3 10.00 Fair CLR 54.9 32 42% 29.84 0.0
08 08:55 S 5 10.00 Fair CLR 52.7 34 49% 29.84 0.0
08 08:35 S 5 10.00 Fair CLR 49.6 37.4 63% 48 29.85 0.0
08 08:15 S 5 10.00 Fair CLR 46.9 38.5 73% 45 29.85 0.0
08 07:55 S 3 10.00 Fair CLR 43.9 37.9 80% 29.86 0.0
08 07:35 Calm 10.00 Fair CLR 39.4 35.8 87% 29.86 0.0
08 07:15 Calm 10.00 Fair CLR 35.6 32.9 90% 29.86 0.0
08 06:55 Calm 10.00 Fair CLR 33.3 31.8 36.3 29.5 94% 29.85 0.0
08 06:35 Calm 7.00 Fair CLR 31.1 30.2 96% 29.85 0.0
08 06:15 Calm 7.00 Fair CLR 30.4 29.7 97% 29.85 0.0
08 05:55 Calm 5.00 Fog/Mist CLR 30.2 29.8 99% 29.85 0.0
08 05:35 Calm 4.00 Fog/Mist CLR 30 29.7 99% 29.85 0.0
08 05:15 Calm 5.00 Fog/Mist CLR 30.2 29.5 97% 29.85 0.0
08 04:55 Calm 7.00 Fair CLR 30.2 29.5 97% 29.85 0.0
08 04:35 Calm 7.00 Fair CLR 30.9 29.7 95% 29.85 0.0
08 04:15 Calm 10.00 Fair CLR 33.3 31.8 94% 29.86 0.0
08 03:55 Calm 10.00 Fair CLR 31.3 30 95% 29.86 0.0
08 03:35 Calm 10.00 Fair CLR 32 30.9 96% 29.86 0.0
08 03:15 Calm 10.00 Fair CLR 31.8 29.3 90% 29.86 0.0
08 02:55 Calm 10.00 Fair CLR 32.2 30.7 94% 29.86 0.0
08 02:35 NW 8 10.00 Fair CLR 31.1 29.8 95% 24 29.87 0.0
08 02:15 Calm 10.00 Fair CLR 32.5 31.3 95% 29.87 0.0
08 01:55 Calm 10.00 Fair CLR 33.3 32.2 96% 29.87 0.0
08 01:35 Calm 10.00 Fair CLR 32.2 30.6 94% 29.88 0.0
08 01:15 Calm 10.00 Fair CLR 36 32.4 87% 29.88 0.0
08 00:55 Calm 10.00 Fair CLR 33.1 32 51.1 32.7 96% 29.89 0.0
08 00:35 Calm 10.00 Fair CLR 35.1 31.5 87% 29.88 0.0
08 00:15 N 3 10.00 Fair CLR 34.9 31.5 87% 29.88 0.0
07 23:55 Calm 10.00 Fair CLR 34.2 31.6 91% 29.88 0.0
07 23:35 N 3 10.00 Fair CLR 35.8 32.4 87% 29.88 0.0
07 23:15 Calm 10.00 Fair CLR 37.6 32.4 81% 29.87 0.0
07 22:55 Calm 10.00 Fair CLR 37.9 32.2 80% 29.87 0.0
07 22:35 Calm 10.00 Fair CLR 38.7 32 77% 29.86 0.0
07 22:15 E 3 10.00 Fair CLR 39.6 32 74% 29.86 0.0
07 21:55 SE 3 10.00 Fair CLR 40.1 32.4 74% 29.86 0.0
07 21:35 SE 3 10.00 Fair CLR 41 32.2 71% 29.86 0.0
07 21:15 E 3 10.00 Fair CLR 41.7 32.2 69% 29.85 0.0
07 20:55 E 6 10.00 Fair CLR 43.2 33.1 68% 40 29.84 0.0
07 20:35 E 5 10.00 Fair CLR 44.2 34 67% 42 29.83 0.0
07 20:15 E 6 10.00 Fair CLR 45.5 34.9 67% 43 29.83 0.0
07 19:55 E 3 10.00 Fair CLR 47.1 35.4 64% 29.82 0.0
07 19:35 E 5 10.00 Fair CLR 48.4 35.6 61% 47 29.81 0.0
07 19:15 E 7 10.00 Fair CLR 49.6 36.1 60% 47 29.81 0.0
07 18:55 E 7 10.00 Fair CLR 51.3 37.8 57.9 50 60% 29.8 0.0
07 18:35 E 7 10.00 Partly Cloudy SCT080 SCT090 52.3 37.9 58% 29.81 0.0
07 18:15 SE 5 10.00 Mostly Cloudy SCT070 BKN090 51.8 35.2 53% 29.8 0.0
07 17:55 SE 6 10.00 Partly Cloudy SCT090 51.8 34.9 53% 29.8 0.0
07 17:35 E 3 10.00 Partly Cloudy SCT075 SCT085 51.1 34.7 54% 29.8 0.0
07 17:15 SE 7 10.00 Partly Cloudy SCT060 SCT075 51.1 34.3 53% 29.81 0.0
07 16:55 E 8 10.00 Mostly Cloudy SCT060 BKN075 BKN090 50.7 33.4 52% 29.81 0.0
07 16:35 E 7 10.00 Partly Cloudy SCT050 SCT060 SCT090 51.1 32.5 49% 29.81 0.0
07 16:15 E 9 10.00 Mostly Cloudy SCT050 SCT065 BKN080 51.8 33.1 49% 29.81 0.0
07 15:55 SE 13 G 17 10.00 Mostly Cloudy SCT070 BKN080 BKN110 51.1 32 48% 29.82 0.0
07 15:35 E 8 10.00 Mostly Cloudy SCT080 BKN100 BKN120 52.3 33.1 48% 29.82 0.0
07 15:15 N 8 10.00 Mostly Cloudy SCT035 SCT042 BKN100 53.8 33.6 47% 29.82 0.0
07 14:55 NW 15 G 24 10.00 Rain SCT038 SCT046 OVC065 52.5 32.5 47% 29.84 0.0
07 14:35 NW 13 G 17 10.00 Overcast BKN065 OVC085 55.4 29.5 37% 29.82 0.0
07 14:15 W 8 10.00 Mostly Cloudy SCT065 BKN085 BKN120 56.5 29.1 35% 29.83 0.0
07 13:55 S 7 G 16 10.00 Partly Cloudy SCT065 SCT095 56.8 29.3 35% 29.83 0.0
07 13:35 S 9 G 16 10.00 Mostly Cloudy SCT065 BKN080 56.8 29.8 36% 29.84 0.0
07 13:15 SW 9 G 18 10.00 Overcast BKN065 OVC090 54.9 27.9 35% 29.86 0.0
07 12:55 SW 8 10.00 Overcast SCT048 BKN065 OVC090 54.9 28.4 55 34.3 36% 29.87 0.0
07 12:35 SW 8 10.00 Overcast BKN065 OVC080 53.1 27.7 38% 29.88 0.0
07 12:15 W 5 G 20 10.00 Mostly Cloudy SCT065 SCT080 BKN120 54.9 28.2 36% 29.88 0.0
07 11:55 W 6 G 17 10.00 Fair CLR 53.6 28 37% 29.89 0.0
07 11:35 W 5 10.00 Fair CLR 52.3 27.5 38% 29.9 0.0
07 11:15 S 7 10.00 Fair CLR 51.1 26.4 38% 29.9 0.0
07 10:55 SW 6 10.00 Fair CLR 50.4 27.5 41% 29.92 0.0
07 10:35 W 6 10.00 Fair CLR 49.8 27.1 41% 48 29.92 0.0
07 10:15 SW 3 10.00 Fair CLR 48.7 27.3 43% 29.93 0.0
07 09:55 W 8 10.00 Fair CLR 46.8 26.6 45% 43 29.94 0.0
07 09:35 W 5 10.00 Partly Cloudy SCT090 45.9 26.6 47% 44 29.96 0.0
07 09:15 W 3 10.00 Mostly Cloudy SCT075 BKN100 44.2 26.4 50% 29.97 0.0
07 08:55 W 5 10.00 Mostly Cloudy SCT075 BKN100 43.2 25.3 49% 41 29.97 0.0
07 08:15 W 8 10.00 Mostly Cloudy SCT070 BKN075 BKN095 41.2 27.5 58% 37 29.98 0.0
07 07:55 W 3 10.00 Overcast SCT065 BKN080 OVC095 39.2 27.3 62% 29.98 0.0
07 07:35 W 5 10.00 Overcast BKN065 OVC095 38.3 28.2 67% 35 29.98 0.0
07 07:15 Calm 10.00 Overcast BKN065 OVC085 35.6 27.7 73% 29.97 0.0
07 06:55 Calm 10.00 Overcast BKN075 OVC090 33.8 26.6 36 28.9 75% 29.97 0.0
07 06:35 Calm 10.00 Overcast BKN075 OVC090 32.4 25.2 75% 29.96 0.0
07 06:15 Calm 10.00 Partly Cloudy SCT075 SCT095 31.8 24.8 75% 29.96 0.0
07 05:55 Calm 10.00 Fair CLR 30.9 24.8 78% 29.96 0.0
07 05:35 Calm 10.00 Fair CLR 30 24.6 80% 29.95 0.0
07 05:15 Calm 10.00 Fair CLR 32 24.4 74% 29.96 0.0
07 04:55 Calm 10.00 Fair CLR 31.5 24.8 76% 29.96 0.0
07 04:35 Calm 10.00 Fair CLR 32 24.6 74% 29.95 0.0
07 04:15 Calm 10.00 Fair CLR 31.1 24.8 77% 29.96 0.0
07 03:55 Calm 10.00 Fair CLR 32.4 24.4 73% 29.96 0.0
07 03:35 Calm 10.00 Fair CLR 32.7 24.6 72% 29.96 0.0
07 03:15 Calm 10.00 Fair CLR 33.3 24.3 70% 29.96 0.0
07 02:55 Calm 10.00 Fair CLR 32.7 24.8 73% 29.96 0.0
07 02:35 Calm 10.00 Fair CLR 31.6 26.1 80% 29.96 0.0
07 02:15 Calm 10.00 Fair CLR 33.8 24.1 68% 29.96 0.0
07 01:55 Calm 10.00 Fair CLR 33.4 24.6 70% 29.97 0.0
07 01:35 Calm 10.00 Fair CLR 35.4 24.4 64% 29.97 0.0
07 01:15 Calm 10.00 Fair CLR 34.9 24.4 66% 29.98 0.0
07 00:55 Calm 10.00 Fair CLR 36 24.4 48.7 35.1 63% 29.98 0.0
07 00:35 W 3 10.00 Fair CLR 35.2 24.8 66% 29.98 0.0
07 00:15 W 5 10.00 Fair CLR 35.4 25.2 66% 32 29.98 0.0
06 23:55 W 5 10.00 Fair CLR 35.6 25 65% 32 29.98 0.0
06 23:35 W 6 10.00 Fair CLR 36.7 24.8 62% 33 29.98 0.0
06 23:15 NW 7 10.00 Fair CLR 38.1 24.8 59% 34 29.98 0.0
06 22:55 NW 5 10.00 Fair CLR 38.1 25.3 60% 35 29.98 0.0
06 22:35 NW 7 10.00 Fair CLR 38.7 24.8 58% 34 29.98 0.0
06 22:15 W 6 10.00 Fair CLR 39.2 25.2 57% 36 29.99 0.0
06 21:55 W 7 10.00 Fair CLR 39.7 24.8 55% 35 29.99 0.0
06 21:35 W 8 10.00 Fair CLR 41.5 24.6 51% 37 29.98 0.0
06 21:15 NW 12 10.00 Partly Cloudy SCT065 42.8 24.1 48% 37 29.97 0.0
06 20:55 NW 12 G 17 10.00 Mostly Cloudy BKN065 43.7 25 48% 38 29.97 0.0
06 20:35 NW 14 10.00 Mostly Cloudy BKN065 44.1 25.7 49% 38 29.96 0.0
06 20:15 W 10 10.00 Partly Cloudy SCT060 44.4 25.5 48% 40 29.95 0.0
06 19:55 W 9 10.00 Mostly Cloudy BKN060 BKN075 45.9 25.7 45% 42 29.94 0.0
06 19:35 W 10 10.00 Mostly Cloudy BKN075 46.4 26.2 45% 42 29.94 0.0
06 19:15 W 14 G 21 10.00 Overcast SCT065 OVC075 47.7 25.7 42% 42 29.93 0.0
06 18:55 NW 15 G 18 10.00 Overcast OVC065 48.7 25.9 53.1 48.6 41% 44 29.93 0.0
06 18:35 W 13 G 20 10.00 Overcast BKN065 OVC085 48.9 25.9 41% 44 29.93 0.0
06 18:15 W 10 10.00 Overcast SCT065 OVC085 49.1 26.4 41% 45 29.92 0.0
06 17:55 W 13 G 17 10.00 Overcast BKN065 OVC075 50.2 26.8 40% 29.92 0.0
06 17:35 W 9 G 17 10.00 Overcast BKN065 OVC075 50 26.8 41% 47 29.92 0.0
06 17:15 W 10 10.00 Overcast SCT065 OVC075 50.2 26.4 40% 29.91 0.0
06 16:55 W 12 G 18 10.00 Overcast SCT065 OVC075 50.4 27.7 42% 29.91 0.0
06 16:35 W 12 G 17 10.00 Overcast SCT065 OVC075 50.2 27.3 41% 29.91 0.0
06 16:15 NW 10 G 16 10.00 Overcast SCT065 BKN075 OVC085 50.9 26.6 39% 29.91 0.0
06 15:55 W 9 10.00 Overcast BKN065 OVC075 51.4 28 41% 29.91 0.0
06 15:35 NW 12 10.00 Overcast OVC080 51.1 27.3 40% 29.91 0.0
06 15:15 W 9 G 16 10.00 Overcast OVC080 51.6 27.5 39% 29.91 0.0
06 14:55 NW 10 10.00 Overcast OVC080 51.3 27.1 39% 29.91 0.0
06 14:35 NW 8 G 17 10.00 Mostly Cloudy SCT065 BKN080 51.3 26.6 38% 29.91 0.0
06 14:15 NW 8 10.00 Overcast OVC065 51.1 26.4 38% 29.91 0.0
06 13:55 NW 10 10.00 Overcast OVC070 50.9 26.8 39% 29.92 0.0
06 13:35 W 10 10.00 Overcast OVC070 51.3 26.8 39% 29.91 0.0
06 12:55 W 14 G 17 10.00 Overcast OVC070 50.4 25.7 53.1 35.2 38% 29.91 0.0
06 12:35 W 13 G 20 10.00 Overcast OVC070 52.9 29.3 40% 29.92 0.0
06 12:15 W 10 G 16 10.00 Overcast SCT060 OVC070 51.1 29.1 43% 29.92 0.0
06 11:55 W 12 10.00 Overcast SCT060 OVC070 50 27.9 42% 46 29.93 0.0
Date Time (cdt) Wind (mph) Vis. (mi.) Weather Sky Cond. Air Dwpt Max. Min. Relative Humidity Wind Chill (°F) Heat Index (°F) altimeter (in) sea level (mb) 1 hr 3 hr 6 hr
6 hour
Temperature (ºF) Pressure Precipitation (in)